createdAt,value
2019-01-10T09:23:02.658Z,0.60
2019-01-10T09:25:30.249Z,0.50
2019-01-10T09:27:57.750Z,0.70
2019-01-10T09:30:25.825Z,0.62
2019-01-10T09:51:50.791Z,16.70
2019-01-10T10:05:37.940Z,12.75
2019-01-10T10:17:41.697Z,11.97
2019-01-10T10:29:44.571Z,13.08
2019-01-10T10:41:49.411Z,15.08
2019-01-10T10:53:52.080Z,12.88
2019-01-10T11:05:56.775Z,17.40
2019-01-10T11:17:59.684Z,16.67
2019-01-10T11:30:02.470Z,10.25
2019-01-10T11:42:06.184Z,8.05
2019-01-10T11:54:10.041Z,9.58
2019-01-10T12:06:12.677Z,11.63
2019-01-10T12:18:16.670Z,8.18
2019-01-10T12:30:19.435Z,7.65
2019-01-10T12:42:20.802Z,8.35
2019-01-10T12:54:24.128Z,15.50
2019-01-10T13:06:25.687Z,12.30
2019-01-10T13:17:46.286Z,15.90
2019-01-10T13:23:47.702Z,12.20
2019-01-10T13:29:49.162Z,11.30
2019-01-10T13:35:50.671Z,9.33
2019-01-10T13:41:52.163Z,8.18
2019-01-10T13:47:54.926Z,8.20
2019-01-10T13:53:57.622Z,7.60
2019-01-10T13:59:59.047Z,8.40
2019-01-10T14:06:01.829Z,9.08
2019-01-10T14:12:03.386Z,8.53
2019-01-10T14:18:05.136Z,8.30
2019-01-10T14:24:06.914Z,7.60
2019-01-10T14:30:13.021Z,10.60
2019-01-10T14:36:14.804Z,6.50
2019-01-10T14:42:16.178Z,6.30
2019-01-10T14:48:17.566Z,6.70
2019-01-10T14:54:18.850Z,6.80
2019-01-10T15:00:21.095Z,5.97
2019-01-10T15:06:22.666Z,6.37
2019-01-10T15:12:24.989Z,6.55
2019-01-10T15:18:26.469Z,6.92
2019-01-10T15:24:27.911Z,7.72
2019-01-10T15:30:29.330Z,7.47
2019-01-10T15:36:33.513Z,8.00
2019-01-10T15:42:34.951Z,9.60
2019-01-10T15:48:36.353Z,8.73
2019-01-10T15:54:38.674Z,8.48
2019-01-10T16:00:40.026Z,6.95
2019-01-10T16:06:41.454Z,7.33
2019-01-10T16:12:42.997Z,6.95
2019-01-10T16:18:44.546Z,7.30
2019-01-10T16:24:46.933Z,10.00
2019-01-10T16:30:49.427Z,8.10
2019-01-10T16:36:52.739Z,7.85
2019-01-10T16:42:56.346Z,7.40
2019-01-10T16:48:57.637Z,7.28
2019-01-10T16:54:58.915Z,6.95
2019-01-10T17:01:00.209Z,7.12
2019-01-10T17:07:02.629Z,6.17
2019-01-10T17:13:04.030Z,6.72
2019-01-10T17:19:05.347Z,7.08
2019-01-10T17:25:07.188Z,6.53
2019-01-10T17:31:08.907Z,7.08
2019-01-10T17:37:10.493Z,7.03
2019-01-10T17:43:12.964Z,10.55
2019-01-10T17:49:15.308Z,9.25
2019-01-10T17:55:16.588Z,4.92
2019-01-10T18:01:18.267Z,6.40
2019-01-10T18:07:20.726Z,4.95
2019-01-10T18:13:23.139Z,4.35
2019-01-10T18:19:24.621Z,5.05
2019-01-10T18:25:26.186Z,5.40
2019-01-10T18:31:28.694Z,5.12
2019-01-10T18:37:30.126Z,6.50
2019-01-10T18:43:32.714Z,13.72
2019-01-10T18:49:35.182Z,23.52
2019-01-10T18:55:37.033Z,13.40
2019-01-10T19:01:38.560Z,7.95
2019-01-10T19:07:40.033Z,6.75
2019-01-10T19:13:42.959Z,5.65
2019-01-10T19:19:45.317Z,3.90
2019-01-10T19:25:46.802Z,4.17
2019-01-10T19:31:50.200Z,3.47
2019-01-10T19:37:52.384Z,3.35
2019-01-10T19:43:53.854Z,3.25
2019-01-10T19:49:58.651Z,2.67
2019-01-10T19:56:00.954Z,2.42
2019-01-10T20:02:04.616Z,2.55
2019-01-10T20:08:05.955Z,3.25
2019-01-10T20:14:08.445Z,2.65
2019-01-10T20:20:20.331Z,2.50
2019-01-10T20:26:21.773Z,2.45
2019-01-10T20:32:23.083Z,2.45
2019-01-10T20:38:25.303Z,2.90
2019-01-10T20:44:27.753Z,2.70
2019-01-10T20:50:30.087Z,2.75
2019-01-10T20:56:32.738Z,3.05
2019-01-10T21:02:36.068Z,3.05
2019-01-10T21:08:37.522Z,2.87
2019-01-10T21:14:39.955Z,2.98
2019-01-10T21:20:42.498Z,3.10
2019-01-10T21:26:43.989Z,2.90
2019-01-10T21:32:46.866Z,3.42
2019-01-10T21:38:48.246Z,3.15
2019-01-10T21:44:50.057Z,3.45
2019-01-10T21:50:51.889Z,7.08
2019-01-10T21:56:53.562Z,8.65
2019-01-10T22:02:55.329Z,6.33
2019-01-10T22:08:57.807Z,4.70
2019-01-10T22:14:59.118Z,4.05
2019-01-10T22:21:00.675Z,4.80
2019-01-10T22:27:02.909Z,5.15
2019-01-10T22:33:04.315Z,4.60
2019-01-10T22:39:07.874Z,5.30
2019-01-10T22:45:09.228Z,4.97
2019-01-10T22:51:10.653Z,4.67
2019-01-10T22:57:12.044Z,4.08
2019-01-10T23:03:13.497Z,3.77
2019-01-10T23:09:14.877Z,3.65
2019-01-10T23:15:27.680Z,4.40
2019-01-10T23:21:30.065Z,4.62
2019-01-10T23:27:32.346Z,4.15
2019-01-10T23:33:34.922Z,4.65
2019-01-10T23:39:36.377Z,4.40
2019-01-10T23:45:37.662Z,4.22
2019-01-10T23:51:38.922Z,4.58
2019-01-10T23:57:40.325Z,4.92
